createdAt,value
2023-02-07T00:01:42.314Z,15.20
2023-02-07T00:04:10.424Z,14.90
2023-02-07T00:06:38.380Z,15.10
2023-02-07T00:09:07.500Z,15.90
2023-02-07T00:11:36.289Z,15.80
2023-02-07T00:14:05.240Z,17.60
2023-02-07T00:16:33.538Z,15.50
2023-02-07T00:19:01.654Z,15.20
2023-02-07T00:21:31.079Z,15.90
2023-02-07T00:23:59.308Z,16.30
2023-02-07T00:26:27.505Z,16.50
2023-02-07T00:28:55.771Z,16.70
2023-02-07T00:31:26.867Z,14.70
2023-02-07T00:34:02.341Z,15.30
2023-02-07T00:36:32.289Z,15.10
2023-02-07T00:39:02.710Z,15.30
2023-02-07T00:41:31.732Z,14.30
2023-02-07T00:44:01.299Z,16.10
2023-02-07T00:46:30.700Z,15.90
2023-02-07T00:48:58.595Z,16.10
2023-02-07T00:51:26.754Z,17.80
2023-02-07T00:53:55.100Z,16.30
2023-02-07T00:56:24.003Z,18.20
2023-02-07T00:58:52.120Z,16.90
2023-02-07T01:01:20.716Z,14.90
2023-02-07T01:03:48.824Z,15.70
2023-02-07T01:06:19.907Z,14.30
2023-02-07T01:08:48.191Z,16.70
2023-02-07T01:11:16.731Z,16.50
2023-02-07T01:13:45.303Z,17.10
2023-02-07T01:16:20.420Z,18.70
2023-02-07T01:18:48.528Z,18.50
2023-02-07T01:21:17.632Z,18.20
2023-02-07T01:23:46.114Z,18.10
2023-02-07T01:26:14.823Z,18.30
2023-02-07T01:28:42.912Z,18.90
2023-02-07T01:31:13.527Z,20.30
2023-02-07T01:33:42.159Z,17.90
2023-02-07T01:36:12.746Z,17.40
2023-02-07T01:38:41.170Z,18.00
2023-02-07T01:41:09.450Z,17.60
2023-02-07T01:43:59.315Z,15.90
2023-02-07T01:46:27.911Z,17.10
2023-02-07T01:48:58.178Z,18.20
2023-02-07T01:51:26.135Z,18.70
2023-02-07T01:53:56.340Z,21.60
2023-02-07T01:56:31.692Z,18.40
2023-02-07T01:59:04.777Z,18.90
2023-02-07T02:01:33.412Z,20.50
2023-02-07T02:04:01.691Z,22.00
2023-02-07T02:06:30.985Z,21.50
2023-02-07T02:09:00.624Z,17.70
2023-02-07T02:11:42.013Z,18.10
2023-02-07T02:14:26.745Z,19.60
2023-02-07T02:17:24.817Z,16.60
2023-02-07T02:20:05.041Z,18.80
2023-02-07T02:22:59.590Z,17.50
2023-02-07T02:25:36.946Z,19.90
2023-02-07T02:28:19.411Z,21.10
2023-02-07T02:31:20.092Z,19.20
2023-02-07T02:34:18.594Z,21.60
2023-02-07T02:37:09.499Z,20.50
2023-02-07T02:40:00.171Z,16.10
2023-02-07T02:42:33.456Z,17.10
2023-02-07T02:45:20.587Z,14.80
2023-02-07T02:47:48.877Z,15.50
2023-02-07T02:50:27.203Z,14.50
2023-02-07T02:52:55.545Z,15.80
2023-02-07T02:55:33.527Z,16.90
2023-02-07T02:58:23.507Z,16.70
2023-02-07T03:01:03.859Z,17.00
2023-02-07T03:04:00.039Z,17.90
2023-02-07T03:06:28.065Z,18.30
2023-02-07T03:09:34.201Z,19.60
2023-02-07T03:12:40.337Z,21.90
2023-02-07T03:15:22.236Z,17.90
2023-02-07T03:17:59.858Z,17.00
2023-02-07T03:20:34.394Z,17.30
2023-02-07T03:23:02.676Z,17.90
2023-02-07T03:25:31.335Z,15.60
2023-02-07T03:27:59.691Z,17.80
2023-02-07T03:30:30.412Z,18.10
2023-02-07T03:32:59.825Z,19.20
2023-02-07T03:35:35.717Z,18.80
2023-02-07T03:38:03.789Z,18.00
2023-02-07T03:40:37.736Z,17.50
2023-02-07T03:43:14.255Z,15.50
2023-02-07T03:45:42.767Z,15.40
2023-02-07T03:48:10.846Z,15.60
2023-02-07T03:50:39.144Z,14.90
2023-02-07T03:53:07.494Z,14.90
2023-02-07T03:55:35.686Z,14.70
2023-02-07T03:58:03.666Z,15.30
2023-02-07T04:00:31.695Z,14.40
2023-02-07T04:02:59.541Z,17.00
2023-02-07T04:05:27.641Z,15.60
2023-02-07T04:07:55.432Z,16.10
2023-02-07T04:10:23.273Z,16.10
2023-02-07T04:12:55.704Z,16.80
2023-02-07T04:15:23.754Z,14.00
2023-02-07T04:17:51.585Z,14.70
2023-02-07T04:20:19.672Z,15.80
2023-02-07T04:22:47.542Z,15.20
2023-02-07T04:25:15.723Z,15.90
2023-02-07T04:27:43.681Z,16.40
2023-02-07T04:30:12.158Z,16.40
2023-02-07T04:32:40.168Z,15.80
2023-02-07T04:35:08.869Z,16.30
2023-02-07T04:37:36.771Z,18.60
2023-02-07T04:40:04.976Z,18.00
2023-02-07T04:42:33.064Z,17.00
2023-02-07T04:45:01.124Z,14.90
2023-02-07T04:47:29.538Z,16.00
2023-02-07T04:49:58.082Z,15.50
2023-02-07T04:52:26.259Z,16.30
2023-02-07T04:54:54.878Z,17.00
2023-02-07T04:57:22.706Z,17.70
2023-02-07T04:59:50.536Z,18.90
2023-02-07T05:02:18.417Z,18.00
2023-02-07T05:04:46.475Z,19.50
2023-02-07T05:07:14.639Z,19.00
2023-02-07T05:09:43.734Z,19.80
2023-02-07T05:12:11.618Z,18.30
2023-02-07T05:14:39.563Z,16.40
2023-02-07T05:17:07.556Z,16.60
2023-02-07T05:19:35.580Z,17.60
2023-02-07T05:22:03.554Z,19.40
2023-02-07T05:24:31.710Z,20.40
2023-02-07T05:27:00.010Z,19.80
2023-02-07T05:29:27.950Z,19.80
2023-02-07T05:32:14.476Z,20.40
2023-02-07T05:34:43.033Z,28.30
2023-02-07T05:37:11.134Z,28.30
2023-02-07T05:39:39.244Z,25.30
2023-02-07T05:42:07.269Z,21.00
2023-02-07T05:44:35.132Z,18.10
2023-02-07T05:47:07.779Z,18.30
2023-02-07T05:49:35.829Z,18.70
2023-02-07T05:52:04.336Z,22.40
2023-02-07T05:54:33.524Z,22.20
2023-02-07T05:57:01.542Z,24.30
2023-02-07T05:59:29.652Z,25.80
2023-02-07T06:01:57.883Z,29.30
2023-02-07T06:04:26.343Z,27.00
2023-02-07T06:06:54.879Z,34.10
2023-02-07T06:09:22.877Z,35.00
2023-02-07T06:11:52.067Z,29.60
2023-02-07T06:14:20.318Z,31.90
2023-02-07T06:16:49.915Z,30.80
2023-02-07T06:19:17.838Z,34.00
2023-02-07T06:21:46.943Z,31.80
2023-02-07T06:24:15.767Z,37.20
2023-02-07T06:26:43.838Z,29.70
2023-02-07T06:29:11.900Z,35.50
2023-02-07T06:31:39.782Z,35.10
2023-02-07T06:34:08.309Z,35.10
2023-02-07T06:36:36.445Z,31.30
2023-02-07T06:39:04.970Z,31.30
2023-02-07T06:41:32.914Z,36.20
2023-02-07T06:44:00.801Z,33.40
2023-02-07T06:46:28.966Z,28.70
2023-02-07T06:48:56.914Z,23.80
2023-02-07T06:51:25.189Z,25.90
2023-02-07T06:53:53.382Z,24.50
2023-02-07T06:56:23.027Z,23.10
2023-02-07T06:58:50.850Z,23.90
2023-02-07T07:01:20.094Z,25.90
2023-02-07T07:03:49.173Z,34.00
2023-02-07T07:06:17.122Z,21.70
2023-02-07T07:08:47.999Z,22.30
2023-02-07T07:11:18.894Z,20.20
2023-02-07T07:13:47.202Z,22.00
2023-02-07T07:16:15.572Z,22.60
2023-02-07T07:18:47.256Z,23.90
2023-02-07T07:21:16.112Z,29.00
2023-02-07T07:26:15.510Z,23.60
2023-02-07T07:28:43.542Z,22.80
2023-02-07T07:31:12.093Z,22.20
2023-02-07T07:33:40.099Z,21.30
2023-02-07T07:36:09.809Z,25.10
2023-02-07T07:41:11.183Z,34.60
2023-02-07T07:43:41.787Z,24.20
2023-02-07T07:46:10.068Z,23.60
2023-02-07T07:48:38.409Z,24.10
2023-02-07T07:51:06.480Z,48.10
2023-02-07T07:53:34.543Z,35.70
2023-02-07T07:56:03.226Z,34.00
2023-02-07T07:58:31.376Z,30.30
2023-02-07T08:01:00.815Z,25.50
2023-02-07T08:03:29.654Z,25.20
2023-02-07T08:05:58.088Z,25.60
2023-02-07T08:08:26.112Z,36.10
2023-02-07T08:10:54.114Z,30.70
2023-02-07T08:13:22.547Z,31.70
2023-02-07T08:15:51.190Z,26.60
2023-02-07T08:18:19.021Z,26.70
2023-02-07T08:20:51.211Z,23.90
2023-02-07T08:25:49.947Z,18.10
2023-02-07T08:28:18.114Z,19.80
2023-02-07T08:30:48.978Z,24.10
2023-02-07T08:35:45.669Z,19.40
2023-02-07T08:38:13.596Z,21.10
2023-02-07T08:40:41.618Z,20.70
2023-02-07T08:43:12.474Z,19.20
2023-02-07T08:45:41.500Z,16.80
2023-02-07T08:48:09.797Z,21.90
2023-02-07T08:50:38.255Z,21.20
2023-02-07T08:53:06.636Z,19.50
2023-02-07T08:55:34.990Z,34.90
2023-02-07T08:58:02.962Z,29.00
2023-02-07T09:00:31.803Z,24.70
2023-02-07T09:03:00.012Z,31.50
2023-02-07T09:05:28.170Z,51.50
2023-02-07T09:07:56.186Z,39.40
2023-02-07T09:10:27.142Z,23.60
2023-02-07T09:12:55.124Z,17.40
2023-02-07T09:15:23.202Z,19.90
2023-02-07T09:17:51.930Z,19.40
2023-02-07T09:20:19.943Z,17.90
2023-02-07T09:23:06.686Z,18.60
2023-02-07T09:25:37.726Z,19.50
2023-02-07T09:28:05.719Z,17.70
2023-02-07T09:30:33.677Z,18.00
2023-02-07T09:33:02.529Z,17.20
2023-02-07T09:35:30.665Z,16.60
2023-02-07T09:37:58.895Z,16.50
2023-02-07T09:40:27.272Z,17.00
2023-02-07T09:43:20.907Z,18.00
2023-02-07T09:45:54.121Z,16.30
2023-02-07T09:48:25.420Z,18.20
2023-02-07T09:51:00.561Z,17.50
2023-02-07T09:53:36.716Z,18.10
2023-02-07T09:56:04.762Z,16.20
2023-02-07T09:58:54.301Z,16.10
2023-02-07T10:01:24.516Z,14.40
2023-02-07T10:04:10.855Z,13.20
2023-02-07T10:06:41.132Z,12.80
2023-02-07T10:09:10.749Z,11.40
2023-02-07T10:11:49.432Z,13.20
2023-02-07T10:14:42.765Z,11.60
2023-02-07T10:17:34.713Z,11.50
2023-02-07T10:20:39.984Z,11.50
2023-02-07T10:23:26.843Z,10.20
2023-02-07T10:26:23.639Z,10.00
2023-02-07T10:29:01.107Z,10.00
2023-02-07T10:31:30.526Z,9.20
2023-02-07T10:34:10.806Z,10.60
2023-02-07T10:36:42.038Z,10.30
2023-02-07T10:39:29.022Z,11.10
2023-02-07T10:41:58.011Z,10.30
2023-02-07T10:44:26.029Z,10.00
2023-02-07T10:46:58.619Z,9.80
2023-02-07T10:49:28.805Z,9.40
2023-02-07T10:52:12.055Z,9.40
2023-02-07T10:55:03.401Z,7.90
2023-02-07T10:57:31.461Z,9.10
2023-02-07T11:00:02.466Z,9.10
2023-02-07T11:05:26.751Z,16.20
2023-02-07T11:07:59.407Z,15.60
2023-02-07T11:10:33.353Z,10.40
2023-02-07T11:13:02.082Z,10.80
2023-02-07T11:15:38.065Z,10.80
2023-02-07T11:18:06.643Z,10.10
2023-02-07T11:20:37.357Z,8.60
2023-02-07T11:23:12.094Z,9.10
2023-02-07T11:25:43.511Z,9.10
2023-02-07T11:28:21.802Z,11.40
2023-02-07T11:30:58.236Z,11.00
2023-02-07T11:33:29.810Z,11.60
2023-02-07T11:36:10.434Z,9.90
2023-02-07T11:38:41.471Z,8.80
2023-02-07T11:41:20.833Z,8.20
2023-02-07T11:44:00.124Z,8.60
2023-02-07T11:46:39.918Z,9.50
2023-02-07T11:49:19.622Z,8.70
2023-02-07T11:51:54.008Z,8.80
2023-02-07T12:16:11.097Z,9.00
2023-02-07T12:18:52.781Z,7.90
2023-02-07T12:21:28.703Z,7.60
2023-02-07T12:24:01.508Z,7.80
2023-02-07T12:26:37.312Z,7.30
2023-02-07T12:29:21.678Z,8.50
2023-02-07T12:31:57.334Z,8.20
2023-02-07T12:34:38.911Z,8.90
2023-02-07T12:37:22.011Z,7.90
2023-02-07T12:40:07.993Z,8.70
2023-02-07T12:42:41.007Z,8.40
2023-02-07T12:45:16.978Z,8.20
2023-02-07T12:47:50.774Z,9.10
2023-02-07T12:50:57.328Z,9.40
2023-02-07T12:53:28.450Z,11.20
2023-02-07T12:56:09.730Z,17.30
2023-02-07T12:58:42.488Z,25.30
2023-02-07T13:01:48.132Z,15.00
2023-02-07T13:04:31.046Z,11.40
2023-02-07T13:07:12.306Z,11.10
2023-02-07T13:09:45.074Z,9.40
2023-02-07T13:12:51.573Z,9.00
2023-02-07T13:15:42.751Z,9.40
2023-02-07T13:18:22.120Z,11.10
2023-02-07T13:21:08.878Z,13.00
2023-02-07T13:23:38.534Z,14.30
2023-02-07T13:26:10.062Z,11.30
2023-02-07T13:31:36.074Z,10.40
2023-02-07T13:34:03.919Z,9.60
2023-02-07T13:36:43.513Z,10.80
2023-02-07T13:39:36.250Z,9.50
2023-02-07T13:42:16.509Z,9.60
2023-02-07T13:45:18.393Z,10.50
2023-02-07T13:50:19.394Z,13.30
2023-02-07T13:53:03.020Z,13.90
2023-02-07T13:55:38.872Z,12.70
2023-02-07T13:58:52.205Z,12.60
2023-02-07T14:01:25.519Z,12.10
2023-02-07T14:04:11.735Z,15.40
2023-02-07T14:06:40.725Z,15.30
2023-02-07T14:09:22.698Z,14.40
2023-02-07T14:12:04.870Z,12.60
2023-02-07T14:14:35.992Z,11.10
2023-02-07T14:17:15.567Z,11.00
2023-02-07T14:19:45.591Z,11.40
2023-02-07T14:22:27.240Z,12.20
2023-02-07T14:24:58.401Z,12.90
2023-02-07T14:27:29.512Z,16.30
2023-02-07T14:30:01.074Z,15.60
2023-02-07T14:32:31.973Z,13.10
2023-02-07T14:35:05.028Z,13.80
2023-02-07T14:37:51.732Z,13.10
2023-02-07T14:40:20.119Z,14.90
2023-02-07T14:43:03.695Z,12.90
2023-02-07T14:45:34.571Z,12.30
2023-02-07T14:48:08.042Z,13.20
2023-02-07T14:50:37.069Z,11.80
2023-02-07T14:53:06.065Z,11.50
2023-02-07T14:55:42.281Z,12.20
2023-02-07T14:58:40.505Z,12.50
2023-02-07T15:01:12.726Z,13.50
2023-02-07T15:03:41.633Z,12.80
2023-02-07T15:06:30.622Z,12.50
2023-02-07T15:09:04.292Z,14.10
2023-02-07T15:11:38.420Z,15.90
2023-02-07T15:14:20.095Z,15.90
2023-02-07T15:16:48.504Z,16.70
2023-02-07T15:19:31.704Z,18.00
2023-02-07T15:21:59.856Z,15.90
2023-02-07T15:24:39.761Z,17.70
2023-02-07T15:27:22.128Z,16.90
2023-02-07T15:29:58.226Z,16.30
2023-02-07T15:32:29.951Z,15.50
2023-02-07T15:34:58.580Z,15.30
2023-02-07T15:37:27.661Z,15.00
2023-02-07T15:39:56.869Z,14.00
2023-02-07T15:42:24.965Z,17.90
2023-02-07T15:44:54.675Z,17.20
2023-02-07T15:47:28.459Z,18.20
2023-02-07T15:50:21.490Z,18.70
2023-02-07T15:52:54.115Z,19.50
2023-02-07T15:55:45.433Z,18.70
2023-02-07T15:58:28.902Z,19.80
2023-02-07T16:01:13.932Z,27.70
2023-02-07T16:03:43.825Z,34.70
2023-02-07T16:06:22.073Z,30.60
2023-02-07T16:08:51.535Z,24.70
2023-02-07T16:11:25.498Z,23.00
2023-02-07T16:13:55.617Z,29.40
2023-02-07T16:16:29.020Z,42.80
2023-02-07T16:19:15.028Z,35.20
2023-02-07T16:21:43.270Z,28.90
2023-02-07T16:24:15.294Z,19.60
2023-02-07T16:26:46.487Z,21.80
2023-02-07T16:29:20.349Z,17.60
2023-02-07T16:31:49.470Z,19.20
2023-02-07T16:34:18.110Z,17.70
2023-02-07T16:36:51.353Z,17.10
2023-02-07T16:39:19.282Z,18.70
2023-02-07T16:41:48.436Z,16.60
2023-02-07T16:44:22.943Z,16.80
2023-02-07T16:46:53.909Z,15.80
2023-02-07T16:49:24.006Z,15.30
2023-02-07T16:51:52.392Z,16.10
2023-02-07T16:54:20.506Z,14.00
2023-02-07T16:56:50.604Z,14.40
2023-02-07T16:59:19.231Z,16.50
2023-02-07T17:01:48.136Z,18.60
2023-02-07T17:04:16.541Z,18.10
2023-02-07T17:06:44.725Z,20.30
2023-02-07T17:09:17.026Z,19.90
2023-02-07T17:11:44.990Z,19.60
2023-02-07T17:14:13.945Z,18.30
2023-02-07T17:16:41.889Z,19.30
2023-02-07T17:19:14.580Z,18.80
2023-02-07T17:21:43.008Z,19.80
2023-02-07T17:24:11.232Z,18.60
2023-02-07T17:26:39.924Z,19.60
2023-02-07T17:29:07.978Z,19.40
2023-02-07T17:31:36.920Z,19.50
2023-02-07T17:34:09.629Z,18.70
2023-02-07T17:36:37.920Z,18.00
2023-02-07T17:39:09.693Z,17.80
2023-02-07T17:41:39.419Z,24.00
2023-02-07T17:44:09.238Z,17.30
2023-02-07T17:46:37.457Z,18.10
2023-02-07T17:49:10.068Z,17.00
2023-02-07T17:51:38.104Z,17.10
2023-02-07T17:54:06.271Z,21.60
2023-02-07T17:56:35.133Z,22.30
2023-02-07T17:59:06.027Z,20.50
2023-02-07T18:01:35.612Z,17.70
2023-02-07T18:04:04.994Z,19.00
2023-02-07T18:06:33.755Z,17.80
2023-02-07T18:09:01.612Z,16.60
2023-02-07T18:11:30.411Z,16.90
2023-02-07T18:14:01.836Z,20.00
2023-02-07T18:16:29.898Z,18.70
2023-02-07T18:18:58.811Z,16.70
2023-02-07T18:21:27.748Z,16.40
2023-02-07T18:23:56.378Z,15.70
2023-02-07T18:26:24.764Z,17.00
2023-02-07T18:28:53.459Z,17.60
2023-02-07T18:31:23.175Z,17.00
2023-02-07T18:33:51.684Z,16.80
2023-02-07T18:36:20.331Z,16.60
2023-02-07T18:38:48.952Z,14.20
2023-02-07T18:41:21.826Z,13.90
2023-02-07T18:43:50.842Z,13.80
2023-02-07T18:46:20.299Z,15.20
2023-02-07T18:48:51.324Z,15.20
2023-02-07T18:51:19.649Z,17.30
2023-02-07T18:53:47.655Z,16.40
2023-02-07T18:56:21.238Z,16.90
2023-02-07T18:58:52.765Z,16.70
2023-02-07T19:01:20.867Z,16.40
2023-02-07T19:03:54.122Z,15.30
2023-02-07T19:06:23.265Z,18.30
2023-02-07T19:08:51.364Z,17.20
2023-02-07T19:11:19.943Z,16.90
2023-02-07T19:13:48.528Z,16.50
2023-02-07T19:16:19.083Z,17.70
2023-02-07T19:18:47.281Z,18.60
2023-02-07T19:21:21.746Z,18.40
2023-02-07T19:23:49.680Z,18.20
2023-02-07T19:26:17.552Z,16.90
2023-02-07T19:28:45.861Z,18.00
2023-02-07T19:31:18.306Z,17.00
2023-02-07T19:33:48.925Z,17.30
2023-02-07T19:36:18.311Z,16.40
2023-02-07T19:38:48.598Z,15.20
2023-02-07T19:41:19.407Z,27.40
2023-02-07T19:43:47.779Z,26.10
2023-02-07T19:46:16.902Z,25.60
2023-02-07T19:48:45.231Z,25.30
2023-02-07T19:51:19.122Z,23.60
2023-02-07T19:53:48.085Z,27.10
2023-02-07T19:56:17.419Z,21.10
2023-02-07T19:58:47.467Z,18.80
2023-02-07T20:01:15.806Z,22.20
2023-02-07T20:03:44.359Z,19.90
2023-02-07T20:06:14.332Z,19.90
2023-02-07T20:08:42.282Z,19.70
2023-02-07T20:11:14.532Z,21.80
2023-02-07T20:13:50.311Z,19.20
2023-02-07T20:16:21.651Z,17.50
2023-02-07T20:18:52.158Z,17.70
2023-02-07T20:21:25.031Z,20.70
2023-02-07T20:23:54.357Z,18.50
2023-02-07T20:26:29.069Z,15.30
2023-02-07T20:29:01.939Z,18.00
2023-02-07T20:31:32.092Z,18.80
2023-02-07T20:34:02.066Z,18.80
2023-02-07T20:36:33.629Z,18.60
2023-02-07T20:39:03.243Z,18.90
2023-02-07T20:41:32.724Z,19.90
2023-02-07T20:44:04.884Z,18.70
2023-02-07T20:46:34.991Z,18.30
2023-02-07T20:49:07.527Z,20.20
2023-02-07T20:51:36.182Z,18.00
2023-02-07T20:54:04.983Z,19.80
2023-02-07T20:56:33.826Z,18.10
2023-02-07T20:59:04.250Z,18.60
2023-02-07T21:01:33.066Z,18.20
2023-02-07T21:04:03.880Z,19.20
2023-02-07T21:06:32.791Z,17.00
2023-02-07T21:09:03.892Z,18.40
2023-02-07T21:11:45.066Z,16.60
2023-02-07T21:14:19.451Z,17.30
2023-02-07T21:16:48.069Z,16.90
2023-02-07T21:19:18.223Z,16.50
2023-02-07T21:21:47.105Z,17.80
2023-02-07T21:24:15.242Z,16.90
2023-02-07T21:26:43.363Z,16.40
2023-02-07T21:29:11.762Z,18.10
2023-02-07T21:31:39.759Z,18.20
2023-02-07T21:34:09.507Z,17.80
2023-02-07T21:36:38.121Z,18.40
2023-02-07T21:39:09.289Z,19.30
2023-02-07T21:41:38.632Z,19.20
2023-02-07T21:44:06.733Z,16.10
2023-02-07T21:46:37.389Z,16.20
2023-02-07T21:49:07.506Z,18.80
2023-02-07T21:51:35.965Z,19.70
2023-02-07T21:54:04.783Z,19.20
2023-02-07T21:56:35.999Z,19.60
2023-02-07T21:59:06.118Z,15.10
2023-02-07T22:04:05.860Z,17.20
2023-02-07T22:06:34.614Z,17.70
2023-02-07T22:09:04.946Z,19.00
2023-02-07T22:11:34.704Z,20.60
2023-02-07T22:14:03.093Z,17.40
2023-02-07T22:16:31.321Z,18.50
2023-02-07T22:19:00.089Z,18.10
2023-02-07T22:21:30.696Z,19.20
2023-02-07T22:23:58.884Z,19.40
2023-02-07T22:26:27.148Z,17.40
2023-02-07T22:28:55.640Z,18.90
2023-02-07T22:31:25.588Z,18.90
2023-02-07T22:33:54.436Z,18.30
2023-02-07T22:36:26.663Z,20.60
2023-02-07T22:38:54.625Z,20.50
2023-02-07T22:41:22.507Z,21.20
2023-02-07T22:43:50.711Z,18.50
2023-02-07T22:46:21.129Z,17.90
2023-02-07T22:48:49.658Z,18.20
2023-02-07T22:51:21.836Z,20.80
2023-02-07T22:53:50.502Z,19.70
2023-02-07T22:56:19.170Z,19.10
2023-02-07T22:58:47.484Z,20.30
2023-02-07T23:01:23.008Z,19.40
2023-02-07T23:03:51.567Z,20.10
2023-02-07T23:06:19.839Z,20.80
2023-02-07T23:08:48.954Z,20.30
2023-02-07T23:11:17.754Z,20.30
2023-02-07T23:13:46.092Z,21.10
2023-02-07T23:16:15.380Z,20.90
2023-02-07T23:18:44.000Z,20.00
2023-02-07T23:21:13.886Z,19.90
2023-02-07T23:23:42.425Z,22.40
2023-02-07T23:26:12.370Z,21.20
2023-02-07T23:28:40.554Z,19.70
2023-02-07T23:31:10.460Z,20.90
2023-02-07T23:33:38.992Z,22.70
2023-02-07T23:36:07.050Z,23.80
2023-02-07T23:38:35.414Z,24.80
2023-02-07T23:41:03.677Z,23.50
2023-02-07T23:43:33.133Z,23.80
2023-02-07T23:46:01.004Z,23.60
2023-02-07T23:48:29.032Z,24.10
2023-02-07T23:50:57.798Z,25.00
2023-02-07T23:53:25.845Z,21.90
2023-02-07T23:55:55.178Z,24.70
2023-02-07T23:58:24.191Z,28.50
